Time;durP1;ratioP1;P1;durP2;ratioP2;P2;SDS_P1;SDS_P2;PMS_P1;PMS_P2;Temp;Humidity;BMP_temperature;BMP_pressure;BME280_temperature;BME280_humidity;BME280_pressure;Samples;Min_cycle;Max_cycle;Signal;HPM_P1;HPM_P2
2021/03/08 00:00:53;;;;;;;64.20;26.75;;;4.00;99.90;;;;;;5013225;28;20049;-65
2021/03/08 00:03:20;;;;;;;52.08;26.85;;;3.90;99.90;;;;;;5028700;28;20102;-65
2021/03/08 00:05:46;;;;;;;64.07;28.55;;;4.00;99.90;;;;;;5026872;28;20042;-65
2021/03/08 00:08:12;;;;;;;61.35;27.25;;;4.00;99.90;;;;;;5015797;28;20056;-65
2021/03/08 00:10:39;;;;;;;60.33;27.15;;;3.90;99.90;;;;;;5018334;28;20410;-65
2021/03/08 00:13:05;;;;;;;64.60;26.92;;;3.90;99.90;;;;;;5016602;28;20053;-65
2021/03/08 00:15:31;;;;;;;54.75;25.85;;;4.00;99.90;;;;;;5013083;28;20065;-65
2021/03/08 00:17:58;;;;;;;44.78;23.25;;;4.00;99.90;;;;;;5016035;28;20074;-65
2021/03/08 00:20:28;;;;;;;40.65;23.08;;;4.10;99.90;;;;;;5019713;28;20039;-65
2021/03/08 00:22:55;;;;;;;40.92;22.52;;;4.10;99.90;;;;;;5010784;28;20069;-65
2021/03/08 00:25:29;;;;;;;40.75;22.98;;;4.20;99.90;;;;;;5019378;28;20051;-65
2021/03/08 00:27:56;;;;;;;38.28;22.15;;;4.30;99.90;;;;;;5005927;28;20410;-65
2021/03/08 00:30:22;;;;;;;41.05;20.70;;;4.30;99.90;;;;;;5017791;28;20043;-65
2021/03/08 00:32:48;;;;;;;39.95;20.52;;;4.30;99.90;;;;;;5013328;28;20086;-65
2021/03/08 00:35:15;;;;;;;36.10;20.20;;;4.40;99.90;;;;;;5005928;28;20058;-65
2021/03/08 00:37:41;;;;;;;34.25;17.75;;;4.40;99.90;;;;;;5019066;28;20065;-65
2021/03/08 00:40:13;;;;;;;28.65;16.00;;;4.40;99.90;;;;;;5006541;28;20130;-65
2021/03/08 00:42:40;;;;;;;30.42;16.00;;;4.50;99.90;;;;;;5006243;28;20082;-65
2021/03/08 00:45:08;;;;;;;27.88;15.25;;;4.50;99.90;;;;;;5019178;28;20050;-65
2021/03/08 00:47:34;;;;;;;23.98;14.27;;;4.50;99.90;;;;;;5006374;28;20060;-65
2021/03/08 00:50:00;;;;;;;24.83;13.63;;;4.50;99.90;;;;;;5018031;28;20121;-65
2021/03/08 00:52:26;;;;;;;24.40;13.45;;;4.50;99.90;;;;;;5011996;28;20069;-65
2021/03/08 00:54:52;;;;;;;24.20;12.95;;;4.50;99.90;;;;;;5025536;28;20387;-65
2021/03/08 00:57:17;;;;;;;21.30;12.38;;;4.40;99.90;;;;;;5012212;28;20081;-65
2021/03/08 00:59:43;;;;;;;20.98;12.10;;;4.40;99.90;;;;;;5013931;28;20050;-65
2021/03/08 01:02:09;;;;;;;21.08;11.77;;;4.40;99.90;;;;;;5018815;28;20502;-65
2021/03/08 01:04:35;;;;;;;19.73;10.52;;;4.30;99.90;;;;;;5015431;28;20050;-65
2021/03/08 01:07:01;;;;;;;18.70;9.68;;;4.30;99.90;;;;;;5018926;28;20054;-65
2021/03/08 01:09:27;;;;;;;21.75;11.13;;;4.30;99.90;;;;;;5016091;28;20038;-65
2021/03/08 01:11:53;;;;;;;20.17;10.80;;;4.30;99.90;;;;;;5012522;28;20088;-65
2021/03/08 01:14:18;;;;;;;15.75;8.82;;;4.30;99.90;;;;;;5015408;28;20077;-65
2021/03/08 01:16:44;;;;;;;16.10;8.27;;;4.30;99.90;;;;;;5018870;28;20174;-65
2021/03/08 01:19:10;;;;;;;14.02;7.20;;;4.30;99.90;;;;;;5014967;28;20526;-65
2021/03/08 01:21:37;;;;;;;12.02;5.88;;;4.30;99.90;;;;;;5012664;28;20054;-65
2021/03/08 01:24:03;;;;;;;14.32;7.10;;;4.30;99.90;;;;;;5016078;28;20065;-65
2021/03/08 01:26:29;;;;;;;11.95;5.55;;;4.30;99.90;;;;;;5019753;28;20046;-65
2021/03/08 01:28:55;;;;;;;15.88;6.88;;;4.30;99.90;;;;;;5011892;28;20054;-65
2021/03/08 01:31:20;;;;;;;10.23;5.25;;;4.30;99.90;;;;;;5017245;28;20042;-65
2021/03/08 01:33:50;;;;;;;11.82;5.38;;;4.30;99.90;;;;;;5012066;28;20054;-65
2021/03/08 01:36:16;;;;;;;12.48;4.80;;;4.30;99.90;;;;;;5011266;28;20488;-65
2021/03/08 01:38:42;;;;;;;10.52;4.70;;;4.30;99.90;;;;;;5017632;28;20050;-65
2021/03/08 01:41:08;;;;;;;15.65;4.30;;;4.30;99.90;;;;;;5018938;28;20078;-65
2021/03/08 01:43:34;;;;;;;12.88;4.57;;;4.20;99.90;;;;;;5012689;28;20053;-65
2021/03/08 01:46:00;;;;;;;15.43;4.63;;;4.20;99.90;;;;;;5012052;28;20049;-65
2021/03/08 01:48:26;;;;;;;11.48;4.63;;;4.20;99.90;;;;;;5024473;28;20466;-65
2021/03/08 01:50:52;;;;;;;9.93;4.75;;;4.20;99.90;;;;;;5012259;28;20490;-65
2021/03/08 01:53:20;;;;;;;12.95;4.63;;;4.20;99.90;;;;;;5020700;28;20112;-65
2021/03/08 01:55:46;;;;;;;11.75;4.25;;;4.20;99.90;;;;;;5023013;28;20140;-65
2021/03/08 01:58:13;;;;;;;12.60;4.35;;;4.20;99.90;;;;;;5023718;28;20406;-65
2021/03/08 02:00:39;;;;;;;16.63;5.30;;;4.20;99.90;;;;;;5013065;28;20064;-65
2021/03/08 02:03:06;;;;;;;12.00;5.15;;;4.20;99.90;;;;;;5014535;28;20070;-65
2021/03/08 02:05:47;;;;;;;12.40;4.50;;;4.20;99.90;;;;;;5035609;28;20042;-65
2021/03/08 02:08:15;;;;;;;14.38;4.50;;;4.10;99.90;;;;;;5011076;28;20407;-65
2021/03/08 02:10:42;;;;;;;14.05;3.88;;;4.20;99.90;;;;;;5031375;28;20045;-65
2021/03/08 02:13:45;;;;;;;11.02;2.90;;;4.30;99.70;;;;;;5015314;28;20066;-65
2021/03/08 02:16:14;;;;;;;15.93;2.70;;;4.40;98.60;;;;;;5011629;28;20058;-65
2021/03/08 02:18:55;;;;;;;9.63;2.63;;;4.20;98.10;;;;;;5004839;28;20062;-65
2021/03/08 02:21:52;;;;;;;14.73;3.10;;;4.20;98.60;;;;;;5017986;28;20498;-65
2021/03/08 02:24:52;;;;;;;11.93;2.63;;;4.10;98.50;;;;;;5011273;28;20097;-65
2021/03/08 02:27:42;;;;;;;12.57;2.67;;;4.00;98.30;;;;;;5005774;28;20054;-65
2021/03/08 02:30:46;;;;;;;13.40;2.67;;;3.90;98.60;;;;;;5005782;28;20102;-65
2021/03/08 02:33:20;;;;;;;13.75;3.10;;;3.90;98.90;;;;;;5008183;28;20050;-65
2021/03/08 02:35:49;;;;;;;15.27;2.92;;;3.90;99.20;;;;;;5011253;28;20133;-65
2021/03/08 02:38:19;;;;;;;10.40;2.90;;;3.80;99.30;;;;;;5004295;28;20051;-65
2021/03/08 02:41:00;;;;;;;10.88;2.60;;;3.90;99.50;;;;;;5019220;28;20096;-65
2021/03/08 02:43:31;;;;;;;11.98;3.25;;;3.90;99.50;;;;;;5016676;28;20050;-66
2021/03/08 02:46:01;;;;;;;12.25;2.53;;;3.80;99.40;;;;;;5014660;28;20486;-65
2021/03/08 02:48:29;;;;;;;;;;;3.80;99.50;;;;;;5018700;28;20043;-65
2021/03/08 02:50:58;;;;;;;12.80;3.10;;;3.80;99.90;;;;;;5021159;28;19929;-65
2021/03/08 02:53:26;;;;;;;19.52;3.80;;;3.80;99.70;;;;;;5017558;28;20046;-65
2021/03/08 02:55:59;;;;;;;12.63;2.75;;;3.70;99.30;;;;;;5019211;28;20057;-65
2021/03/08 02:58:28;;;;;;;10.82;3.30;;;3.70;99.30;;;;;;5018587;28;20085;-65
2021/03/08 03:00:55;;;;;;;20.48;3.15;;;3.60;99.30;;;;;;5014324;28;20106;-65
2021/03/08 03:03:22;;;;;;;17.30;2.97;;;3.60;99.30;;;;;;5024804;28;20113;-65
2021/03/08 03:05:49;;;;;;;10.35;2.55;;;3.60;99.40;;;;;;5025484;28;20056;-65
2021/03/08 03:08:19;;;;;;;15.63;2.83;;;3.60;99.60;;;;;;5018356;28;20468;-65
2021/03/08 03:10:45;;;;;;;12.43;3.28;;;3.60;99.40;;;;;;5017205;28;20525;-65
2021/03/08 03:13:12;;;;;;;15.73;3.60;;;3.60;99.60;;;;;;5018769;28;20045;-65
2021/03/08 03:15:39;;;;;;;12.50;2.83;;;3.60;99.90;;;;;;5013620;28;20053;-65
2021/03/08 03:18:07;;;;;;;10.75;3.60;;;3.60;99.50;;;;;;5016799;28;20058;-65
2021/03/08 03:20:34;;;;;;;20.70;4.60;;;3.60;99.40;;;;;;5024980;28;20468;-65
2021/03/08 03:23:02;;;;;;;18.85;3.90;;;3.70;99.40;;;;;;5007123;28;20065;-65
2021/03/08 03:25:29;;;;;;;19.92;3.92;;;3.80;99.30;;;;;;5007719;28;20050;-65
2021/03/08 03:27:56;;;;;;;17.70;4.30;;;3.80;99.20;;;;;;5020559;28;20077;-65
2021/03/08 03:30:25;;;;;;;20.55;5.93;;;3.90;99.10;;;;;;5020141;28;20132;-65
2021/03/08 03:32:51;;;;;;;16.55;4.60;;;3.90;98.90;;;;;;5007250;28;20118;-65
2021/03/08 03:35:20;;;;;;;15.90;4.15;;;4.00;98.90;;;;;;5024932;28;20045;-66
2021/03/08 03:37:47;;;;;;;14.52;3.92;;;4.00;98.90;;;;;;5007329;28;20057;-65
2021/03/08 03:40:19;;;;;;;14.00;4.22;;;4.00;99.00;;;;;;5020068;28;20050;-65
2021/03/08 03:42:47;;;;;;;16.90;3.45;;;4.00;98.90;;;;;;5014606;28;20042;-65
2021/03/08 03:45:13;;;;;;;13.95;4.10;;;4.00;98.80;;;;;;5013711;28;20502;-66
2021/03/08 03:47:39;;;;;;;14.98;3.97;;;4.00;98.90;;;;;;5019780;28;20045;-65
2021/03/08 03:50:09;;;;;;;10.70;3.10;;;3.90;98.70;;;;;;5020219;28;20567;-65
2021/03/08 03:52:36;;;;;;;13.57;4.70;;;4.00;98.70;;;;;;5013179;28;20046;-65
2021/03/08 03:55:04;;;;;;;16.88;5.68;;;4.10;98.50;;;;;;5016681;28;20042;-65
2021/03/08 03:57:38;;;;;;;18.80;4.90;;;4.10;98.20;;;;;;5014438;28;20136;-65
2021/03/08 04:00:06;;;;;;;12.38;4.57;;;4.10;97.80;;;;;;5013086;28;20078;-66
2021/03/08 04:02:47;;;;;;;17.55;5.13;;;4.10;97.60;;;;;;5018599;28;20068;-66
2021/03/08 04:05:22;;;;;;;16.05;5.38;;;4.00;97.50;;;;;;5040027;28;20069;-66
2021/03/08 04:07:49;;;;;;;19.95;5.40;;;4.00;97.80;;;;;;5015201;28;20069;-65
2021/03/08 04:10:15;;;;;;;13.73;4.25;;;3.90;97.90;;;;;;5019704;28;20050;-65
2021/03/08 04:12:47;;;;;;;16.73;4.97;;;3.90;97.80;;;;;;5018148;28;20057;-65
2021/03/08 04:15:16;;;;;;;20.98;5.75;;;3.90;97.90;;;;;;5013138;28;20437;-65
2021/03/08 04:17:42;;;;;;;19.45;4.40;;;3.90;97.90;;;;;;5014748;28;20051;-65
2021/03/08 04:20:15;;;;;;;13.95;4.68;;;3.80;97.60;;;;;;5019537;28;20052;-65
2021/03/08 04:22:47;;;;;;;15.80;4.85;;;3.80;98.00;;;;;;5018596;28;20060;-65
2021/03/08 04:25:14;;;;;;;17.95;5.53;;;3.70;98.00;;;;;;5019403;28;20105;-65
2021/03/08 04:27:40;;;;;;;18.63;5.57;;;3.70;98.20;;;;;;5018987;28;20045;-66
2021/03/08 04:30:08;;;;;;;17.23;5.18;;;3.60;98.50;;;;;;5012157;28;20048;-65
2021/03/08 04:32:34;;;;;;;18.25;4.60;;;3.50;98.70;;;;;;5013056;28;20461;-65
2021/03/08 04:35:00;;;;;;;20.08;5.85;;;3.50;99.10;;;;;;5016356;28;20514;-66
2021/03/08 04:37:27;;;;;;;17.73;5.18;;;3.40;99.00;;;;;;5018881;28;20089;-66
2021/03/08 04:39:54;;;;;;;14.95;4.72;;;3.30;99.30;;;;;;5012130;28;20111;-66
2021/03/08 04:42:21;;;;;;;16.58;5.45;;;3.30;99.60;;;;;;5013181;28;20058;-66
2021/03/08 04:44:48;;;;;;;15.27;4.60;;;3.20;99.80;;;;;;5024655;28;20069;-66
2021/03/08 04:47:20;;;;;;;20.13;5.72;;;3.20;99.90;;;;;;5011823;28;20044;-65
2021/03/08 04:49:47;;;;;;;20.45;5.45;;;3.20;99.90;;;;;;5013600;28;20046;-65
2021/03/08 04:52:14;;;;;;;19.35;4.82;;;3.20;99.90;;;;;;5023836;28;20120;-65
2021/03/08 04:54:44;;;;;;;20.15;4.97;;;3.10;99.90;;;;;;5015713;28;20458;-65
2021/03/08 04:57:14;;;;;;;15.20;5.07;;;3.10;99.90;;;;;;5012085;28;20050;-65
2021/03/08 04:59:40;;;;;;;20.45;4.15;;;3.10;99.90;;;;;;5013519;28;20054;-65
2021/03/08 05:02:08;;;;;;;12.40;3.80;;;3.10;99.90;;;;;;5023921;28;20068;-65
2021/03/08 05:04:36;;;;;;;13.93;4.07;;;3.10;99.90;;;;;;5036556;28;20126;-66
2021/03/08 05:07:02;;;;;;;11.55;3.92;;;3.20;99.90;;;;;;5021946;28;20049;-65
2021/03/08 05:09:29;;;;;;;17.70;4.35;;;3.20;99.90;;;;;;5016720;28;20112;-65
2021/03/08 05:11:55;;;;;;;14.38;3.92;;;3.20;99.90;;;;;;5011577;28;20049;-65
2021/03/08 05:14:23;;;;;;;18.30;4.28;;;3.20;99.90;;;;;;5014309;28;20069;-65
2021/03/08 05:16:50;;;;;;;12.77;3.97;;;3.20;99.90;;;;;;5018956;28;20046;-66
2021/03/08 05:19:18;;;;;;;16.40;4.32;;;3.20;99.90;;;;;;5016074;28;20046;-65
2021/03/08 05:21:44;;;;;;;16.63;4.30;;;3.20;99.90;;;;;;5010951;28;20037;-66
2021/03/08 05:24:12;;;;;;;12.60;3.90;;;3.20;99.90;;;;;;5024516;28;20050;-65
2021/03/08 05:26:38;;;;;;;18.33;4.40;;;3.30;99.90;;;;;;5011558;28;20046;-65
2021/03/08 05:29:06;;;;;;;10.52;3.38;;;3.30;99.90;;;;;;5014388;28;20050;-66
2021/03/08 05:31:35;;;;;;;17.63;3.90;;;3.30;99.90;;;;;;5012440;28;20042;-67
2021/03/08 05:34:04;;;;;;;19.45;4.20;;;3.30;99.90;;;;;;5016202;28;20049;-67
2021/03/08 05:36:32;;;;;;;14.02;4.80;;;3.30;99.90;;;;;;5023640;28;20054;-67
2021/03/08 05:39:00;;;;;;;18.33;3.88;;;3.30;99.90;;;;;;5023782;28;20129;-66
2021/03/08 05:41:33;;;;;;;12.13;3.55;;;3.30;99.90;;;;;;5021782;28;20081;-67
2021/03/08 05:44:07;;;;;;;17.27;3.90;;;3.30;99.90;;;;;;5008526;28;20050;-67
2021/03/08 05:47:03;;;;;;;9.85;3.30;;;3.30;99.90;;;;;;5015815;28;20041;-67
2021/03/08 05:49:54;;;;;;;13.60;3.30;;;3.20;99.90;;;;;;5018339;28;20047;-67
2021/03/08 05:52:51;;;;;;;12.80;3.40;;;3.20;99.90;;;;;;5015780;28;20046;-66
2021/03/08 05:55:54;;;;;;;12.93;4.28;;;3.20;99.90;;;;;;5014986;28;20042;-67
2021/03/08 05:59:03;;;;;;;23.38;3.35;;;3.20;99.90;;;;;;5008787;28;20058;-67
2021/03/08 06:01:46;;;;;;;18.15;4.47;;;3.20;99.90;;;;;;4978293;28;20109;-67
2021/03/08 06:04:26;;;;;;;11.98;3.38;;;3.20;99.90;;;;;;5012487;28;20038;-67
2021/03/08 06:07:13;;;;;;;14.13;3.70;;;3.20;99.90;;;;;;5005978;28;20054;-67
2021/03/08 06:09:52;;;;;;;9.15;3.42;;;3.20;99.90;;;;;;5007712;28;20053;-67
2021/03/08 06:12:24;;;;;;;17.23;3.40;;;3.20;99.90;;;;;;5006515;28;20046;-67
2021/03/08 06:14:56;;;;;;;10.93;3.60;;;3.20;99.90;;;;;;5004502;28;20309;-67
2021/03/08 06:17:22;;;;;;;12.88;3.85;;;3.20;99.90;;;;;;5009716;28;20041;-68
2021/03/08 06:19:49;;;;;;;15.95;3.60;;;3.20;99.90;;;;;;5016529;28;20132;-64
2021/03/08 06:22:16;;;;;;;12.93;3.55;;;3.30;99.90;;;;;;5012538;28;20049;-65
2021/03/08 06:24:45;;;;;;;12.85;3.72;;;3.20;99.90;;;;;;5014322;28;20072;-65
2021/03/08 06:27:15;;;;;;;10.70;4.28;;;3.20;99.90;;;;;;5009205;28;20050;-65
2021/03/08 06:29:42;;;;;;;11.43;3.50;;;3.20;99.90;;;;;;5016858;28;20066;-65
2021/03/08 06:32:10;;;;;;;10.43;4.05;;;3.30;99.90;;;;;;5009736;28;20122;-64
2021/03/08 06:34:37;;;;;;;14.85;4.95;;;3.30;99.90;;;;;;5011810;28;20050;-64
2021/03/08 06:37:08;;;;;;;13.45;3.80;;;3.20;99.90;;;;;;5010501;28;20053;-64
2021/03/08 06:39:35;;;;;;;16.25;4.10;;;3.30;99.90;;;;;;5014767;28;20042;-65
2021/03/08 06:42:02;;;;;;;14.00;4.13;;;3.30;99.90;;;;;;5003835;28;20045;-65
2021/03/08 06:44:29;;;;;;;14.93;3.90;;;3.30;99.90;;;;;;5019535;28;20053;-65
2021/03/08 06:46:55;;;;;;;12.48;3.63;;;3.30;99.90;;;;;;5021276;28;20057;-65
2021/03/08 06:49:21;;;;;;;15.45;4.05;;;3.30;99.90;;;;;;5011602;28;20095;-65
2021/03/08 06:51:59;;;;;;;18.52;3.83;;;3.40;99.90;;;;;;5035527;28;20081;-64
2021/03/08 06:54:26;;;;;;;16.50;4.00;;;3.40;99.90;;;;;;5015908;28;20053;-65
2021/03/08 06:56:52;;;;;;;14.45;3.17;;;3.40;99.90;;;;;;5026935;28;20053;-65
2021/03/08 06:59:17;;;;;;;14.40;4.03;;;3.50;99.90;;;;;;5019220;28;20063;-65
2021/03/08 07:01:45;;;;;;;17.65;3.80;;;3.50;99.90;;;;;;5030807;28;20039;-65
2021/03/08 07:04:18;;;;;;;12.55;3.55;;;3.60;99.90;;;;;;5010313;28;20095;-65
2021/03/08 07:07:07;;;;;;;16.42;3.80;;;3.60;99.90;;;;;;5040802;28;20046;-65
2021/03/08 07:09:34;;;;;;;12.82;3.40;;;3.60;99.90;;;;;;4993809;28;20453;-65
2021/03/08 07:12:05;;;;;;;14.00;3.53;;;3.70;99.90;;;;;;5025786;28;20049;-65
2021/03/08 07:14:30;;;;;;;16.50;3.45;;;3.70;99.90;;;;;;5009471;28;20121;-65
2021/03/08 07:16:56;;;;;;;10.98;3.17;;;3.80;99.90;;;;;;5014861;28;20095;-65
2021/03/08 07:19:22;;;;;;;14.82;3.95;;;3.90;99.90;;;;;;5010940;28;20046;-65
2021/03/08 07:21:52;;;;;;;13.23;3.30;;;3.90;99.90;;;;;;5040647;28;20524;-65
2021/03/08 07:24:18;;;;;;;14.20;3.80;;;4.00;99.70;;;;;;5013804;28;20145;-65
2021/03/08 07:26:50;;;;;;;18.90;3.60;;;4.00;99.60;;;;;;5023451;28;20126;-65
2021/03/08 07:29:17;;;;;;;15.75;3.63;;;4.00;99.20;;;;;;4996894;28;20041;-67
2021/03/08 07:31:52;;;;;;;16.88;3.85;;;4.00;99.10;;;;;;5025145;28;20048;-65
2021/03/08 07:34:18;;;;;;;16.67;3.50;;;4.00;99.00;;;;;;5003910;28;20149;-65
2021/03/08 07:37:01;;;;;;;16.27;4.18;;;4.00;98.90;;;;;;5014083;28;20050;-65
2021/03/08 07:39:28;;;;;;;13.00;3.30;;;4.00;98.50;;;;;;5000631;28;20042;-65
2021/03/08 07:41:54;;;;;;;14.13;3.97;;;3.90;98.40;;;;;;5030858;28;20417;-65
2021/03/08 07:44:22;;;;;;;15.30;4.85;;;3.90;98.20;;;;;;5008807;28;20052;-65
2021/03/08 07:46:48;;;;;;;17.95;4.22;;;3.90;98.40;;;;;;5011468;28;20054;-65
2021/03/08 07:49:14;;;;;;;11.07;3.72;;;3.90;98.30;;;;;;4999706;28;20070;-65
2021/03/08 07:52:01;;;;;;;13.18;3.13;;;3.90;98.30;;;;;;5011047;28;20116;-65
2021/03/08 07:54:28;;;;;;;12.85;3.92;;;4.00;98.30;;;;;;4994057;28;20153;-65
2021/03/08 07:56:56;;;;;;;15.30;3.53;;;3.90;96.90;;;;;;5026010;28;20088;-65
2021/03/08 07:59:22;;;;;;;15.95;3.20;;;3.90;96.60;;;;;;4993417;28;20110;-65
2021/03/08 08:01:51;;;;;;;15.10;3.55;;;4.00;97.10;;;;;;5013468;28;20057;-65
2021/03/08 08:04:16;;;;;;;18.13;3.95;;;4.10;97.10;;;;;;5019129;28;20169;-65
2021/03/08 08:06:43;;;;;;;10.02;2.92;;;4.10;97.30;;;;;;5028918;28;20530;-65
2021/03/08 08:09:11;;;;;;;15.60;2.95;;;4.20;97.00;;;;;;4996594;28;20045;-66
2021/03/08 08:11:37;;;;;;;13.18;2.63;;;4.30;96.30;;;;;;5031170;28;20064;-67
2021/03/08 08:14:05;;;;;;;10.05;2.63;;;4.30;95.80;;;;;;5009049;28;20537;-67
2021/03/08 08:16:36;;;;;;;19.40;2.92;;;4.30;96.10;;;;;;5032642;28;20058;-68
2021/03/08 08:19:04;;;;;;;10.55;2.75;;;4.40;95.60;;;;;;5020670;28;20121;-67
2021/03/08 08:21:36;;;;;;;12.60;3.35;;;4.40;95.70;;;;;;5025280;28;20282;-67
2021/03/08 08:24:05;;;;;;;13.10;3.50;;;4.50;95.60;;;;;;5019188;28;20191;-67
2021/03/08 08:26:32;;;;;;;13.88;3.38;;;4.50;95.60;;;;;;5024794;28;20117;-67
2021/03/08 08:28:59;;;;;;;11.73;2.75;;;4.60;95.20;;;;;;5015351;28;20229;-67
2021/03/08 08:31:25;;;;;;;17.55;2.97;;;4.70;94.70;;;;;;5021594;28;20054;-67
2021/03/08 08:33:52;;;;;;;22.65;4.88;;;4.90;94.30;;;;;;5008945;28;20051;-67
2021/03/08 08:36:24;;;;;;;11.38;2.53;;;4.80;93.50;;;;;;5004645;28;20088;-67
2021/03/08 08:38:53;;;;;;;16.33;2.97;;;4.80;94.00;;;;;;5002911;28;20393;-67
2021/03/08 08:41:30;;;;;;;13.52;3.30;;;4.90;93.10;;;;;;5011128;28;20050;-68
2021/03/08 08:44:14;;;;;;;13.68;2.85;;;5.00;93.80;;;;;;5020510;28;20085;-68
2021/03/08 08:46:45;;;;;;;15.10;2.95;;;5.00;94.00;;;;;;5016887;28;20061;-68
2021/03/08 08:49:20;;;;;;;14.05;3.17;;;5.10;93.40;;;;;;5015068;28;20632;-67
2021/03/08 08:51:56;;;;;;;14.43;2.70;;;5.20;92.20;;;;;;5000430;28;20106;-67
2021/03/08 08:54:27;;;;;;;14.70;2.72;;;5.10;93.20;;;;;;5002043;28;20046;-67
2021/03/08 08:56:58;;;;;;;21.08;3.65;;;5.10;92.90;;;;;;5031534;28;20046;-67
2021/03/08 08:59:25;;;;;;;13.23;3.00;;;5.20;93.10;;;;;;5007718;28;20049;-67
2021/03/08 09:02:23;;;;;;;15.02;3.15;;;5.20;92.90;;;;;;5032067;28;20096;-67
2021/03/08 09:04:49;;;;;;;14.40;3.03;;;5.20;93.00;;;;;;5012565;28;20049;-67
2021/03/08 09:07:36;;;;;;;8.85;2.47;;;5.30;92.50;;;;;;5027570;28;20076;-68
2021/03/08 09:10:02;;;;;;;8.13;2.38;;;5.30;92.30;;;;;;5002147;28;20117;-67
2021/03/08 09:12:43;;;;;;;14.90;2.97;;;5.40;92.30;;;;;;5020985;28;20354;-67
2021/03/08 09:15:11;;;;;;;12.05;2.95;;;5.50;91.80;;;;;;5012248;28;20059;-67
2021/03/08 09:17:47;;;;;;;12.75;2.50;;;5.70;90.80;;;;;;5027704;28;20042;-67
2021/03/08 09:20:13;;;;;;;11.05;2.20;;;6.10;89.10;;;;;;4996466;28;20084;-67
2021/03/08 09:22:46;;;;;;;12.95;2.83;;;6.30;89.40;;;;;;5009685;28;20255;-68
2021/03/08 09:25:29;;;;;;;12.35;3.03;;;6.40;87.90;;;;;;5002084;28;20084;-68
2021/03/08 09:27:58;;;;;;;9.82;2.80;;;6.50;86.40;;;;;;5008447;28;20053;-68
2021/03/08 09:30:27;;;;;;;10.38;3.28;;;6.50;86.70;;;;;;5011617;28;20068;-69
2021/03/08 09:32:52;;;;;;;13.45;3.08;;;6.40;88.40;;;;;;5025745;28;20864;-69
2021/03/08 09:35:21;;;;;;;12.57;2.63;;;6.40;88.10;;;;;;5014459;28;20073;-69
2021/03/08 09:37:51;;;;;;;8.73;2.50;;;6.40;88.30;;;;;;5025409;28;20524;-69
2021/03/08 09:40:19;;;;;;;8.25;2.90;;;6.70;85.40;;;;;;5013304;28;20076;-69
2021/03/08 09:42:45;;;;;;;14.02;3.08;;;7.00;82.00;;;;;;5019433;28;20411;-69
2021/03/08 09:45:37;;;;;;;9.88;2.78;;;6.80;83.30;;;;;;4998845;28;20130;-69
2021/03/08 09:48:04;;;;;;;8.45;2.50;;;6.70;84.70;;;;;;5001593;28;20510;-68
2021/03/08 09:50:35;;;;;;;11.05;2.60;;;6.60;84.20;;;;;;5010772;28;20115;-68
2021/03/08 09:53:02;;;;;;;13.55;3.05;;;6.50;83.80;;;;;;5015834;28;20522;-68
2021/03/08 09:55:32;;;;;;;12.02;2.85;;;6.60;84.80;;;;;;5012989;28;20072;-68
2021/03/08 09:58:07;;;;;;;14.18;3.00;;;6.70;82.60;;;;;;5013366;28;20054;-69
2021/03/08 10:00:34;;;;;;;10.20;2.58;;;6.60;82.80;;;;;;5000812;28;20048;-68
2021/03/08 10:03:05;;;;;;;10.23;2.90;;;6.70;84.70;;;;;;5027980;28;20048;-68
2021/03/08 10:05:44;;;;;;;10.68;3.85;;;6.60;81.10;;;;;;5024045;28;20054;-68
2021/03/08 10:08:12;;;;;;;13.50;2.40;;;6.60;82.80;;;;;;5025315;28;20129;-68
2021/03/08 10:10:41;;;;;;;10.68;3.28;;;6.60;84.40;;;;;;5014607;28;20049;-68
2021/03/08 10:13:07;;;;;;;9.82;2.58;;;6.70;84.30;;;;;;5021247;28;20099;-68
2021/03/08 10:15:52;;;;;;;8.57;2.00;;;6.80;79.90;;;;;;5011631;28;20050;-68
2021/03/08 10:18:20;;;;;;;9.13;2.17;;;7.20;76.80;;;;;;5007768;28;20053;-68
2021/03/08 10:20:50;;;;;;;9.18;2.78;;;7.30;77.60;;;;;;5008504;28;20076;-68
2021/03/08 10:23:17;;;;;;;;;;;7.30;78.10;;;;;;5007948;28;20513;-68
2021/03/08 10:25:43;;;;;;;12.93;2.55;;;7.40;77.00;;;;;;5016912;28;19943;-69
2021/03/08 10:28:09;;;;;;;11.43;3.40;;;7.50;76.60;;;;;;5016872;28;20117;-68
2021/03/08 10:30:36;;;;;;;8.52;3.47;;;7.50;76.20;;;;;;5006121;28;20608;-68
2021/03/08 10:33:03;;;;;;;11.32;2.95;;;7.50;77.20;;;;;;5007719;28;20038;-68
2021/03/08 10:35:31;;;;;;;9.13;3.03;;;7.70;76.30;;;;;;5003172;28;20136;-68
2021/03/08 10:37:59;;;;;;;8.82;3.13;;;7.60;77.80;;;;;;5014762;28;20047;-68
2021/03/08 10:40:25;;;;;;;10.63;2.70;;;7.50;78.00;;;;;;5008516;28;20054;-68
2021/03/08 10:42:52;;;;;;;10.98;2.40;;;7.50;78.30;;;;;;5011546;28;20046;-68
2021/03/08 10:45:18;;;;;;;12.60;2.85;;;7.50;78.20;;;;;;5009880;28;20100;-68
2021/03/08 10:48:03;;;;;;;7.53;2.72;;;7.60;77.80;;;;;;5016587;28;20046;-67
2021/03/08 10:50:46;;;;;;;10.32;2.72;;;7.70;76.90;;;;;;5005981;28;20049;-68
2021/03/08 10:53:13;;;;;;;12.82;2.55;;;7.80;76.10;;;;;;5013635;28;20053;-68
2021/03/08 10:55:40;;;;;;;11.00;3.15;;;8.20;70.80;;;;;;5016210;28;20421;-68
2021/03/08 10:58:07;;;;;;;9.50;2.60;;;7.90;72.90;;;;;;5027264;28;20064;-68
2021/03/08 11:00:33;;;;;;;12.75;2.53;;;7.90;74.30;;;;;;5021636;28;20045;-68
2021/03/08 11:03:00;;;;;;;7.00;1.88;;;7.90;74.60;;;;;;5015573;28;20486;-68
2021/03/08 11:05:27;;;;;;;10.10;2.50;;;7.70;74.10;;;;;;5023456;28;20068;-68
2021/03/08 11:07:54;;;;;;;15.57;3.00;;;7.40;73.80;;;;;;5025669;28;20037;-68
2021/03/08 11:10:37;;;;;;;8.90;2.00;;;7.50;75.90;;;;;;5014722;28;20132;-68
2021/03/08 11:13:08;;;;;;;7.72;2.03;;;7.60;74.60;;;;;;5018563;28;20421;-68
2021/03/08 11:15:35;;;;;;;7.00;2.35;;;7.60;75.90;;;;;;5015965;28;20079;-68
2021/03/08 11:18:02;;;;;;;10.45;2.05;;;7.60;75.60;;;;;;5018984;28;20111;-68
2021/03/08 11:20:31;;;;;;;7.63;2.45;;;7.80;76.00;;;;;;5000727;28;20570;-68
2021/03/08 11:23:05;;;;;;;9.75;2.25;;;7.80;76.20;;;;;;5018858;28;20054;-68
2021/03/08 11:25:35;;;;;;;9.27;2.20;;;8.00;72.10;;;;;;4998792;28;20056;-68
2021/03/08 11:28:03;;;;;;;;;;;8.00;71.30;;;;;;5022292;28;20065;-69
2021/03/08 11:30:29;;;;;;;6.45;1.55;;;7.90;69.70;;;;;;5024768;28;19972;-68
2021/03/08 11:32:59;;;;;;;6.95;2.08;;;7.90;72.80;;;;;;5011723;28;20081;-68
2021/03/08 11:35:30;;;;;;;8.80;2.30;;;7.70;72.40;;;;;;4996075;28;20077;-68
2021/03/08 11:38:02;;;;;;;11.45;1.92;;;7.80;73.40;;;;;;5009554;28;20042;-69
2021/03/08 11:40:29;;;;;;;8.38;2.13;;;7.70;72.80;;;;;;4998832;28;20052;-70
2021/03/08 11:42:56;;;;;;;11.13;2.70;;;7.60;74.80;;;;;;5013191;28;21290;-69
2021/03/08 11:45:22;;;;;;;8.90;2.20;;;7.50;73.80;;;;;;4999363;28;20129;-69
2021/03/08 11:47:56;;;;;;;6.68;2.90;;;7.30;75.40;;;;;;5011654;28;20058;-69
2021/03/08 11:50:24;;;;;;;6.72;2.20;;;7.60;73.90;;;;;;5001377;28;20049;-69
2021/03/08 11:52:51;;;;;;;11.07;2.72;;;7.70;74.30;;;;;;5013346;28;20086;-69
2021/03/08 11:55:18;;;;;;;11.45;2.60;;;7.90;75.40;;;;;;5010895;28;20053;-69
2021/03/08 11:57:45;;;;;;;8.77;3.03;;;8.30;73.90;;;;;;5015594;28;20058;-69
2021/03/08 12:00:13;;;;;;;10.35;3.17;;;8.60;72.90;;;;;;5009298;28;20600;-69
2021/03/08 12:02:39;;;;;;;7.22;1.88;;;8.90;71.90;;;;;;5012764;28;20042;-69
2021/03/08 12:05:06;;;;;;;8.57;2.08;;;9.20;70.60;;;;;;4996844;28;20042;-69
2021/03/08 12:07:34;;;;;;;9.90;2.10;;;9.20;70.20;;;;;;5018225;28;20050;-68
2021/03/08 12:10:00;;;;;;;9.48;2.50;;;9.30;70.00;;;;;;4998783;28;20096;-67
2021/03/08 12:12:26;;;;;;;12.25;2.88;;;9.10;70.70;;;;;;5024549;28;20046;-68
2021/03/08 12:14:52;;;;;;;10.80;2.30;;;9.10;71.80;;;;;;5015474;28;20093;-68
2021/03/08 12:17:18;;;;;;;6.50;2.13;;;9.00;72.90;;;;;;5016733;28;20081;-69
2021/03/08 12:19:43;;;;;;;9.13;2.20;;;8.70;70.70;;;;;;5014991;28;20092;-69
2021/03/08 12:22:09;;;;;;;8.02;2.45;;;8.40;70.50;;;;;;5010008;28;20124;-68
2021/03/08 12:24:35;;;;;;;8.90;2.50;;;8.10;72.10;;;;;;5006203;28;20061;-69
2021/03/08 12:27:01;;;;;;;7.57;2.38;;;8.00;72.90;;;;;;5020121;28;20046;-68
2021/03/08 12:29:27;;;;;;;10.70;3.05;;;7.70;73.30;;;;;;5002876;28;20054;-68
2021/03/08 12:31:52;;;;;;;8.55;2.35;;;7.70;76.50;;;;;;5004204;28;20060;-68
2021/03/08 12:34:18;;;;;;;6.63;2.05;;;7.50;75.00;;;;;;5014940;28;20069;-69
2021/03/08 12:36:44;;;;;;;9.52;2.72;;;7.60;75.90;;;;;;5004102;28;20105;-69
2021/03/08 12:39:10;;;;;;;7.15;2.30;;;7.80;75.60;;;;;;5000665;28;20054;-68
2021/03/08 12:41:36;;;;;;;5.93;1.80;;;7.80;75.20;;;;;;5008229;28;20120;-68
2021/03/08 12:44:01;;;;;;;5.57;2.00;;;7.70;75.20;;;;;;5011648;28;20054;-68
2021/03/08 12:46:27;;;;;;;6.85;2.45;;;7.70;75.70;;;;;;5007770;28;20065;-69
2021/03/08 12:48:53;;;;;;;7.78;1.80;;;7.70;76.00;;;;;;5019042;28;20100;-68
2021/03/08 12:51:22;;;;;;;7.85;2.15;;;7.80;77.30;;;;;;5006533;28;20561;-69
2021/03/08 12:53:48;;;;;;;6.78;2.30;;;7.60;74.80;;;;;;5024252;28;20100;-69
2021/03/08 12:56:14;;;;;;;8.60;2.65;;;7.60;75.50;;;;;;5015443;28;20045;-68
2021/03/08 12:58:39;;;;;;;6.68;2.75;;;7.80;76.50;;;;;;5022064;28;20508;-68
2021/03/08 13:01:06;;;;;;;8.50;2.50;;;8.00;75.60;;;;;;5013447;28;20041;-68